Time;durP1;ratioP1;P1;durP2;ratioP2;P2;SDS_P1;SDS_P2;PMS_P1;PMS_P2;Temp;Humidity;BMP_temperature;BMP_pressure;BME280_temperature;BME280_humidity;BME280_pressure;Samples;Min_cycle;Max_cycle;Signal;HPM_P1;HPM_P2
2024/04/10 00:00:02;;;;;;;2.08;1.00;;;;;;;;;;5462999;26;20273;-49
2024/04/10 00:02:32;;;;;;;2.42;1.20;;;;;;;;;;5454361;26;20333;-48
2024/04/10 00:05:03;;;;;;;3.33;1.65;;;;;;;;;;5453348;26;20214;-48
2024/04/10 00:07:32;;;;;;;0.70;0.70;;;;;;;;;;5487360;26;20225;-47
2024/04/10 00:09:58;;;;;;;0.60;0.60;;;;;;;;;;5478203;26;20260;-46
2024/04/10 00:12:28;;;;;;;1.80;0.93;;;;;;;;;;5455948;26;20321;-48
2024/04/10 00:14:54;;;;;;;1.13;0.65;;;;;;;;;;5473737;26;20225;-47
2024/04/10 00:17:23;;;;;;;1.90;0.90;;;;;;;;;;5489500;26;20260;-48
2024/04/10 00:19:50;;;;;;;1.20;0.75;;;;;;;;;;5480384;26;20214;-48
2024/04/10 00:22:22;;;;;;;1.52;0.93;;;;;;;;;;5452817;26;20265;-48
2024/04/10 00:24:51;;;;;;;1.58;1.00;;;;;;;;;;5476435;26;20267;-45
2024/04/10 00:27:20;;;;;;;0.80;0.80;;;;;;;;;;5489340;26;20240;-48
2024/04/10 00:29:47;;;;;;;0.70;0.70;;;;;;;;;;5489319;26;20221;-45
2024/04/10 00:32:16;;;;;;;1.52;1.08;;;;;;;;;;5473891;26;20240;-48
2024/04/10 00:34:42;;;;;;;0.85;0.85;;;;;;;;;;5481903;26;20226;-47
2024/04/10 00:37:11;;;;;;;0.60;0.60;;;;;;;;;;5452830;26;20281;-48
2024/04/10 00:39:41;;;;;;;0.95;0.90;;;;;;;;;;5488465;26;20571;-51
2024/04/10 00:42:10;;;;;;;1.17;0.85;;;;;;;;;;5487999;26;20225;-50
2024/04/10 00:44:50;;;;;;;0.95;0.90;;;;;;;;;;5489101;26;20217;-50
2024/04/10 00:47:19;;;;;;;0.85;0.82;;;;;;;;;;5489284;26;20745;-47
2024/04/10 00:49:46;;;;;;;0.85;0.77;;;;;;;;;;5474013;26;20276;-50
2024/04/10 00:52:15;;;;;;;1.27;1.17;;;;;;;;;;5459655;26;20293;-47
2024/04/10 00:54:45;;;;;;;1.20;1.10;;;;;;;;;;5452575;26;20230;-47
2024/04/10 00:57:14;;;;;;;1.42;1.05;;;;;;;;;;5452575;26;20226;-48
2024/04/10 00:59:41;;;;;;;1.55;0.95;;;;;;;;;;5452505;26;20269;-50
2024/04/10 01:02:10;;;;;;;3.00;1.20;;;;;;;;;;5452274;26;20230;-47
2024/04/10 01:04:37;;;;;;;1.10;1.00;;;;;;;;;;5452258;26;20226;-48
2024/04/10 01:07:10;;;;;;;1.42;1.00;;;;;;;;;;5452451;26;20262;-46
2024/04/10 01:09:37;;;;;;;0.70;0.70;;;;;;;;;;5452487;26;20634;-47
2024/04/10 01:12:09;;;;;;;1.05;0.95;;;;;;;;;;5479781;26;20822;-47
2024/04/10 01:14:36;;;;;;;1.58;0.95;;;;;;;;;;5474367;26;20225;-48
2024/04/10 01:17:05;;;;;;;1.27;1.00;;;;;;;;;;5488717;26;20317;-49
2024/04/10 01:19:32;;;;;;;2.58;0.95;;;;;;;;;;5488719;26;20217;-50
2024/04/10 01:22:01;;;;;;;1.10;1.00;;;;;;;;;;5488494;26;20810;-45
2024/04/10 01:24:33;;;;;;;2.95;1.00;;;;;;;;;;5488500;26;20217;-46
2024/04/10 01:27:00;;;;;;;2.25;1.58;;;;;;;;;;5488662;26;20213;-46
2024/04/10 01:29:29;;;;;;;1.25;1.10;;;;;;;;;;5488517;26;20260;-45
2024/04/10 01:31:55;;;;;;;0.80;0.80;;;;;;;;;;5488490;26;20221;-46
2024/04/10 01:34:24;;;;;;;1.02;0.90;;;;;;;;;;5488360;26;20225;-48
2024/04/10 01:36:52;;;;;;;0.70;0.70;;;;;;;;;;5478998;26;20218;-48
2024/04/10 01:39:21;;;;;;;2.00;0.80;;;;;;;;;;5452028;26;20250;-47
2024/04/10 01:41:50;;;;;;;1.20;1.00;;;;;;;;;;5451849;26;20230;-47
2024/04/10 01:44:19;;;;;;;2.35;1.08;;;;;;;;;;5467004;26;20228;-48
2024/04/10 01:46:46;;;;;;;1.65;0.90;;;;;;;;;;5481246;26;20269;-47
2024/04/10 01:49:15;;;;;;;1.55;1.45;;;;;;;;;;5452519;26;20322;-47
2024/04/10 01:51:41;;;;;;;0.88;0.88;;;;;;;;;;5467532;26;20324;-50
2024/04/10 01:54:11;;;;;;;2.13;0.95;;;;;;;;;;5464946;26;20780;-47
2024/04/10 01:56:37;;;;;;;2.60;1.05;;;;;;;;;;5488120;26;20221;-47
2024/04/10 01:59:09;;;;;;;1.48;1.00;;;;;;;;;;5476642;26;20772;-47
2024/04/10 02:01:37;;;;;;;1.17;1.08;;;;;;;;;;5451706;26;20237;-47
2024/04/10 02:04:06;;;;;;;0.80;0.80;;;;;;;;;;5451489;26;20230;-47
2024/04/10 02:06:32;;;;;;;1.15;1.00;;;;;;;;;;5451471;26;20822;-49
2024/04/10 02:09:01;;;;;;;1.33;1.17;;;;;;;;;;5451912;26;20218;-47
2024/04/10 02:11:28;;;;;;;1.80;1.05;;;;;;;;;;5467375;26;20234;-47
2024/04/10 02:13:58;;;;;;;1.88;1.30;;;;;;;;;;5451843;26;20250;-47
2024/04/10 02:16:27;;;;;;;1.40;1.20;;;;;;;;;;5451442;26;20225;-47
2024/04/10 02:18:58;;;;;;;1.60;1.02;;;;;;;;;;5476439;26;20268;-47
2024/04/10 02:21:24;;;;;;;1.38;1.20;;;;;;;;;;5486021;26;20264;-45
2024/04/10 02:23:53;;;;;;;1.02;0.80;;;;;;;;;;5451312;26;20310;-47
2024/04/10 02:26:20;;;;;;;2.63;1.00;;;;;;;;;;5452777;26;20248;-48
2024/04/10 02:28:49;;;;;;;0.75;0.75;;;;;;;;;;5464404;26;20598;-48
2024/04/10 02:31:15;;;;;;;3.13;1.08;;;;;;;;;;5451148;26;20277;-46
2024/04/10 02:33:48;;;;;;;2.00;1.10;;;;;;;;;;5451168;26;20321;-48
2024/04/10 02:36:14;;;;;;;1.65;1.50;;;;;;;;;;5451297;26;20214;-47
2024/04/10 02:38:43;;;;;;;1.33;1.10;;;;;;;;;;5486914;26;20264;-48
2024/04/10 02:41:10;;;;;;;1.20;1.10;;;;;;;;;;5473215;26;20269;-49
2024/04/10 02:43:39;;;;;;;1.92;1.20;;;;;;;;;;5451587;26;20226;-47
2024/04/10 02:46:06;;;;;;;2.45;1.30;;;;;;;;;;5451179;26;20253;-47
2024/04/10 02:48:35;;;;;;;1.67;0.90;;;;;;;;;;5470367;26;20229;-46
2024/04/10 02:51:06;;;;;;;2.65;1.27;;;;;;;;;;5475232;26;20756;-49
2024/04/10 02:53:35;;;;;;;1.02;0.93;;;;;;;;;;5450909;26;20614;-48
2024/04/10 02:56:02;;;;;;;1.25;1.15;;;;;;;;;;5461562;26;20229;-47
2024/04/10 02:58:31;;;;;;;0.98;0.95;;;;;;;;;;5487362;26;20213;-49
2024/04/10 03:00:57;;;;;;;1.13;1.02;;;;;;;;;;5487165;26;20595;-47
2024/04/10 03:03:28;;;;;;;1.00;1.00;;;;;;;;;;5487258;26;20221;-47
2024/04/10 03:06:04;;;;;;;3.20;1.00;;;;;;;;;;5485977;26;20275;-48
2024/04/10 03:08:34;;;;;;;1.50;1.20;;;;;;;;;;5456947;26;20230;-47
2024/04/10 03:11:00;;;;;;;2.40;1.25;;;;;;;;;;5460254;26;20242;-48
2024/04/10 03:13:30;;;;;;;1.25;1.13;;;;;;;;;;5450443;26;20256;-46
2024/04/10 03:15:56;;;;;;;2.05;1.55;;;;;;;;;;5476440;26;20238;-47
2024/04/10 03:18:25;;;;;;;1.50;1.15;;;;;;;;;;5451241;26;20314;-48
2024/04/10 03:20:52;;;;;;;2.45;1.83;;;;;;;;;;5486807;26;20272;-47
2024/04/10 03:23:24;;;;;;;1.10;1.00;;;;;;;;;;5456823;26;20237;-48
2024/04/10 03:26:04;;;;;;;1.23;1.10;;;;;;;;;;5458122;26;20315;-48
2024/04/10 03:28:34;;;;;;;1.00;1.00;;;;;;;;;;5452733;26;20248;-47
2024/04/10 03:31:01;;;;;;;2.17;1.50;;;;;;;;;;5450168;26;20234;-47
2024/04/10 03:33:30;;;;;;;1.67;1.17;;;;;;;;;;5466047;26;20286;-46
2024/04/10 03:35:56;;;;;;;2.17;1.40;;;;;;;;;;5451481;26;20265;-47
2024/04/10 03:38:28;;;;;;;2.00;1.40;;;;;;;;;;5466042;26;20221;-46
2024/04/10 03:40:55;;;;;;;2.80;1.67;;;;;;;;;;5462287;26;20298;-47
2024/04/10 03:43:24;;;;;;;1.95;1.17;;;;;;;;;;5480621;26;20229;-46
2024/04/10 03:45:53;;;;;;;2.97;1.27;;;;;;;;;;5486235;26;20217;-48
2024/04/10 03:48:22;;;;;;;1.63;1.10;;;;;;;;;;5486136;26;20269;-47
2024/04/10 03:50:52;;;;;;;2.50;1.40;;;;;;;;;;5462397;26;20260;-48
2024/04/10 03:53:18;;;;;;;2.20;1.20;;;;;;;;;;5449846;26;20214;-48
2024/04/10 03:55:50;;;;;;;1.90;1.77;;;;;;;;;;5457269;26;20217;-48
2024/04/10 03:58:17;;;;;;;1.65;1.50;;;;;;;;;;5471910;26;20226;-49
2024/04/10 04:00:48;;;;;;;1.75;1.50;;;;;;;;;;5465691;26;20756;-48
2024/04/10 04:03:14;;;;;;;1.35;1.15;;;;;;;;;;5449643;26;20272;-49
2024/04/10 04:05:43;;;;;;;1.27;1.17;;;;;;;;;;5449889;26;20266;-48
2024/04/10 04:08:11;;;;;;;1.30;1.20;;;;;;;;;;5463441;26;20327;-47
2024/04/10 04:10:41;;;;;;;1.48;1.20;;;;;;;;;;5469236;26;20264;-46
2024/04/10 04:13:10;;;;;;;1.60;1.17;;;;;;;;;;5457651;26;20218;-48
2024/04/10 04:15:40;;;;;;;2.42;1.60;;;;;;;;;;5450780;26;20246;-46
2024/04/10 04:18:07;;;;;;;1.25;1.10;;;;;;;;;;5453399;26;20222;-47
2024/04/10 04:20:36;;;;;;;2.65;2.45;;;;;;;;;;5456445;26;20215;-47
2024/04/10 04:23:03;;;;;;;1.73;0.95;;;;;;;;;;5472757;26;20748;-47
2024/04/10 04:25:33;;;;;;;1.70;1.60;;;;;;;;;;5472108;26;20568;-47
2024/04/10 04:28:00;;;;;;;3.67;1.65;;;;;;;;;;5453150;26;20709;-47
2024/04/10 04:30:32;;;;;;;1.35;1.25;;;;;;;;;;5457143;26;20797;-47
2024/04/10 04:32:59;;;;;;;2.17;1.45;;;;;;;;;;5489292;26;20712;-46
2024/04/10 04:35:28;;;;;;;1.63;1.50;;;;;;;;;;5457953;26;20234;-47
2024/04/10 04:37:56;;;;;;;2.72;1.42;;;;;;;;;;5452814;26;20214;-48
2024/04/10 04:40:25;;;;;;;1.27;1.17;;;;;;;;;;5468359;26;20307;-48
2024/04/10 04:42:52;;;;;;;2.92;1.95;;;;;;;;;;5479678;26;20281;-46
2024/04/10 04:45:21;;;;;;;2.72;1.63;;;;;;;;;;5452655;26;20291;-51
2024/04/10 04:47:50;;;;;;;1.58;1.20;;;;;;;;;;5452994;26;20214;-47
2024/04/10 04:50:19;;;;;;;1.38;1.23;;;;;;;;;;5468092;26;20696;-46
2024/04/10 04:52:45;;;;;;;1.48;1.30;;;;;;;;;;5452666;26;20272;-49
2024/04/10 04:55:14;;;;;;;2.97;2.00;;;;;;;;;;5452630;26;20693;-47
2024/04/10 04:57:41;;;;;;;1.42;1.33;;;;;;;;;;5452937;26;20277;-46
2024/04/10 05:00:14;;;;;;;2.67;1.80;;;;;;;;;;5480798;26;20288;-49
2024/04/10 05:02:41;;;;;;;2.30;1.50;;;;;;;;;;5453925;26;20269;-46
2024/04/10 05:05:18;;;;;;;1.42;1.30;;;;;;;;;;5480467;26;20294;-46
2024/04/10 05:07:45;;;;;;;1.60;1.50;;;;;;;;;;5452555;26;20240;-46
2024/04/10 05:10:16;;;;;;;2.58;1.60;;;;;;;;;;5452365;26;20218;-49
2024/04/10 05:12:43;;;;;;;3.70;1.70;;;;;;;;;;5452483;26;20234;-46
2024/04/10 05:15:15;;;;;;;2.72;1.67;;;;;;;;;;5465981;26;20229;-46
2024/04/10 05:17:43;;;;;;;3.65;2.30;;;;;;;;;;5488746;26;20287;-49
2024/04/10 05:20:15;;;;;;;1.92;1.55;;;;;;;;;;5474965;26;20712;-47
2024/04/10 05:22:43;;;;;;;1.50;1.33;;;;;;;;;;5452283;26;20292;-47
2024/04/10 05:25:12;;;;;;;1.60;1.50;;;;;;;;;;5452196;26;20563;-47
2024/04/10 05:27:40;;;;;;;1.88;1.67;;;;;;;;;;5479937;26;20268;-46
2024/04/10 05:30:12;;;;;;;2.33;2.13;;;;;;;;;;5452139;26;20717;-49
2024/04/10 05:32:40;;;;;;;1.90;1.65;;;;;;;;;;5457932;26;20284;-47
2024/04/10 05:35:11;;;;;;;3.00;2.30;;;;;;;;;;5488608;26;20225;-47
2024/04/10 05:37:40;;;;;;;1.92;1.75;;;;;;;;;;5467940;26;20824;-47
2024/04/10 05:40:13;;;;;;;4.97;2.67;;;;;;;;;;5464985;26;20573;-48
2024/04/10 05:42:41;;;;;;;5.55;2.28;;;;;;;;;;5451886;26;20229;-47
2024/04/10 05:45:12;;;;;;;2.15;1.88;;;;;;;;;;5463543;26;20266;-48
2024/04/10 05:47:40;;;;;;;2.72;2.05;;;;;;;;;;5482678;26;20717;-47
2024/04/10 05:50:12;;;;;;;2.53;2.10;;;;;;;;;;5451950;26;20214;-47
2024/04/10 05:52:42;;;;;;;3.20;2.22;;;;;;;;;;5451872;26;20290;-46
2024/04/10 05:55:13;;;;;;;2.88;1.90;;;;;;;;;;5478699;26;20261;-47
2024/04/10 05:57:39;;;;;;;2.30;1.67;;;;;;;;;;5474721;26;20230;-49
2024/04/10 06:00:11;;;;;;;2.35;1.48;;;;;;;;;;5488075;26;20224;-48
2024/04/10 06:02:38;;;;;;;2.85;1.25;;;;;;;;;;5467292;26;20230;-49
2024/04/10 06:05:09;;;;;;;1.55;1.35;;;;;;;;;;5451545;26;20274;-49
2024/04/10 06:07:36;;;;;;;1.35;1.25;;;;;;;;;;5456545;26;20229;-48
2024/04/10 06:10:09;;;;;;;1.98;1.63;;;;;;;;;;5488010;26;20253;-48
2024/04/10 06:12:35;;;;;;;3.70;1.85;;;;;;;;;;5487943;26;20285;-47
2024/04/10 06:15:04;;;;;;;1.77;1.40;;;;;;;;;;5461508;26;20877;-46
2024/04/10 06:17:33;;;;;;;1.50;1.40;;;;;;;;;;5451618;26;20211;-46
2024/04/10 06:20:04;;;;;;;2.80;1.50;;;;;;;;;;5460911;26;20260;-46
2024/04/10 06:22:34;;;;;;;4.25;1.70;;;;;;;;;;5487807;26;20225;-47
2024/04/10 06:25:00;;;;;;;4.15;1.55;;;;;;;;;;5487682;26;20213;-48
2024/04/10 06:27:32;;;;;;;3.28;1.58;;;;;;;;;;5486631;26;20316;-49
2024/04/10 06:29:59;;;;;;;2.08;1.88;;;;;;;;;;5464539;26;20728;-48
2024/04/10 06:32:28;;;;;;;3.50;1.58;;;;;;;;;;5464346;26;20955;-49
2024/04/10 06:34:54;;;;;;;3.42;1.95;;;;;;;;;;5467940;26;20266;-47
2024/04/10 06:37:23;;;;;;;1.55;1.33;;;;;;;;;;5451344;26;20218;-48
2024/04/10 06:39:51;;;;;;;1.80;1.70;;;;;;;;;;5449585;26;20260;-50
2024/04/10 06:42:20;;;;;;;5.22;1.90;;;;;;;;;;5451178;26;20350;-47
2024/04/10 06:44:49;;;;;;;2.67;2.10;;;;;;;;;;5471728;26;20259;-47
2024/04/10 06:47:18;;;;;;;2.00;1.80;;;;;;;;;;5457255;26;20222;-47
2024/04/10 06:49:45;;;;;;;1.80;1.50;;;;;;;;;;5464136;26;20210;-47
2024/04/10 06:52:14;;;;;;;2.15;1.58;;;;;;;;;;5463006;26;20339;-46
2024/04/10 06:54:40;;;;;;;1.88;1.52;;;;;;;;;;5481134;26;20274;-47
2024/04/10 06:57:09;;;;;;;5.93;2.47;;;;;;;;;;5476965;26;20264;-47
2024/04/10 06:59:37;;;;;;;1.75;1.63;;;;;;;;;;5466859;26;20268;-47
2024/04/10 07:03:41;;;;;;;2.47;1.73;;;;;;;;;;5692034;25;20599;-45
2024/04/10 07:06:13;;;;;;;1.98;1.83;;;;;;;;;;5657587;25;20242;-48
2024/04/10 07:08:42;;;;;;;2.03;1.73;;;;;;;;;;5657552;25;20255;-48
2024/04/10 07:11:14;;;;;;;3.08;1.67;;;;;;;;;;5665107;25;20234;-46
2024/04/10 07:13:45;;;;;;;5.78;2.85;;;;;;;;;;5689759;25;20221;-45
2024/04/10 07:16:14;;;;;;;3.00;1.80;;;;;;;;;;5657418;25;20622;-45
2024/04/10 07:18:47;;;;;;;2.78;2.03;;;;;;;;;;5694345;25;20207;-46
2024/04/10 07:21:15;;;;;;;2.42;2.22;;;;;;;;;;5696655;25;20227;-48
2024/04/10 07:23:45;;;;;;;2.97;1.80;;;;;;;;;;5675440;25;20217;-47
2024/04/10 07:26:13;;;;;;;3.47;1.98;;;;;;;;;;5688529;25;20591;-48
2024/04/10 07:28:44;;;;;;;2.20;1.88;;;;;;;;;;5677876;25;20223;-46
2024/04/10 07:31:11;;;;;;;2.40;1.80;;;;;;;;;;5696329;25;20223;-47
2024/04/10 07:33:40;;;;;;;1.92;1.70;;;;;;;;;;5661586;25;20224;-45
2024/04/10 07:36:12;;;;;;;4.25;2.25;;;;;;;;;;5696363;25;20798;-46
2024/04/10 07:38:42;;;;;;;1.98;1.77;;;;;;;;;;5696204;25;20258;-46
2024/04/10 07:41:09;;;;;;;6.00;2.90;;;;;;;;;;5696233;25;20219;-46
2024/04/10 07:43:39;;;;;;;2.13;1.60;;;;;;;;;;5695963;25;20212;-50
2024/04/10 07:46:10;;;;;;;8.88;2.75;;;;;;;;;;5696260;25;20242;-46
2024/04/10 07:48:40;;;;;;;2.22;1.67;;;;;;;;;;5679918;25;20298;-48
2024/04/10 07:51:12;;;;;;;2.90;1.80;;;;;;;;;;5695958;25;20262;-47
2024/04/10 07:53:43;;;;;;;4.47;2.58;;;;;;;;;;5679180;25;20231;-47
2024/04/10 07:56:12;;;;;;;2.95;1.90;;;;;;;;;;5695893;25;20258;-47
2024/04/10 07:58:42;;;;;;;2.92;2.03;;;;;;;;;;5695291;25;20220;-50
2024/04/10 08:01:09;;;;;;;2.90;1.98;;;;;;;;;;5695085;25;20294;-47
2024/04/10 08:03:39;;;;;;;4.35;2.67;;;;;;;;;;5685431;25;20216;-46
2024/04/10 08:06:11;;;;;;;5.82;2.42;;;;;;;;;;5695114;25;20220;-49
2024/04/10 08:08:42;;;;;;;2.88;2.20;;;;;;;;;;5695225;25;20220;-48
2024/04/10 08:11:11;;;;;;;3.35;2.00;;;;;;;;;;5695622;25;20223;-47
2024/04/10 08:13:42;;;;;;;4.43;2.35;;;;;;;;;;5686037;25;20228;-47
2024/04/10 08:16:11;;;;;;;3.30;1.58;;;;;;;;;;5678462;25;20263;-46
2024/04/10 08:18:43;;;;;;;2.22;1.92;;;;;;;;;;5678201;25;20254;-49
2024/04/10 08:21:13;;;;;;;5.07;2.92;;;;;;;;;;5678230;25;20236;-46
2024/04/10 08:23:44;;;;;;;4.22;2.33;;;;;;;;;;5677894;25;20220;-50
2024/04/10 08:26:12;;;;;;;5.15;2.28;;;;;;;;;;5678389;25;20591;-49
2024/04/10 08:28:45;;;;;;;2.47;1.55;;;;;;;;;;5678214;25;20220;-46
2024/04/10 08:31:13;;;;;;;4.35;2.13;;;;;;;;;;5678547;25;20228;-48
2024/04/10 08:33:42;;;;;;;4.03;1.65;;;;;;;;;;5668323;25;20224;-47
2024/04/10 08:36:12;;;;;;;2.22;1.75;;;;;;;;;;5678551;25;20219;-47
2024/04/10 08:38:42;;;;;;;4.78;2.08;;;;;;;;;;5678175;25;20216;-47
2024/04/10 08:41:12;;;;;;;3.75;1.77;;;;;;;;;;5678053;25;20330;-51
2024/04/10 08:43:45;;;;;;;3.33;2.10;;;;;;;;;;5677622;25;20228;-48
2024/04/10 08:46:13;;;;;;;3.58;1.65;;;;;;;;;;5678138;25;20220;-47
2024/04/10 08:48:45;;;;;;;2.20;1.90;;;;;;;;;;5678156;25;20651;-50
2024/04/10 08:51:15;;;;;;;4.75;1.92;;;;;;;;;;5677796;25;20228;-46
2024/04/10 08:53:46;;;;;;;2.63;1.90;;;;;;;;;;5675186;25;20703;-48
2024/04/10 08:56:15;;;;;;;2.45;2.10;;;;;;;;;;5677903;25;20254;-48
2024/04/10 08:58:44;;;;;;;1.80;1.70;;;;;;;;;;5677702;25;20224;-49
2024/04/10 09:01:11;;;;;;;2.70;1.80;;;;;;;;;;5677369;25;20271;-49
2024/04/10 09:03:40;;;;;;;3.88;1.67;;;;;;;;;;5667703;25;20792;-49
2024/04/10 09:06:08;;;;;;;7.05;1.90;;;;;;;;;;5678012;25;20254;-49
2024/04/10 09:08:41;;;;;;;2.13;1.80;;;;;;;;;;5677239;25;20224;-48
2024/04/10 09:11:08;;;;;;;2.75;1.38;;;;;;;;;;5677378;25;20274;-49
2024/04/10 09:13:37;;;;;;;1.60;1.50;;;;;;;;;;5676906;25;20649;-47
2024/04/10 09:16:04;;;;;;;4.03;1.58;;;;;;;;;;5677455;25;20231;-46
2024/04/10 09:18:33;;;;;;;4.55;1.95;;;;;;;;;;5677078;25;20831;-48
2024/04/10 09:21:08;;;;;;;2.55;1.75;;;;;;;;;;5677579;25;20275;-46
2024/04/10 09:23:40;;;;;;;2.58;1.63;;;;;;;;;;5676780;25;20308;-47
2024/04/10 09:26:07;;;;;;;2.92;1.60;;;;;;;;;;5677170;25;20275;-49
2024/04/10 09:28:36;;;;;;;3.38;2.00;;;;;;;;;;5677363;25;20220;-47
2024/04/10 09:31:03;;;;;;;3.75;1.83;;;;;;;;;;5677279;25;20274;-50
2024/04/10 09:33:36;;;;;;;1.88;1.67;;;;;;;;;;5667477;25;20221;-47
2024/04/10 09:36:04;;;;;;;3.95;1.55;;;;;;;;;;5677321;25;20263;-48
2024/04/10 09:38:40;;;;;;;3.60;1.70;;;;;;;;;;5677061;25;20223;-51
2024/04/10 09:41:08;;;;;;;2.08;1.45;;;;;;;;;;5677006;25;20277;-50
2024/04/10 09:43:39;;;;;;;4.53;2.45;;;;;;;;;;5676495;25;20314;-47
2024/04/10 09:46:06;;;;;;;2.58;2.38;;;;;;;;;;5677382;25;20216;-50
2024/04/10 09:48:37;;;;;;;3.22;1.40;;;;;;;;;;5676613;25;20295;-48
2024/04/10 09:51:05;;;;;;;2.17;1.63;;;;;;;;;;5676856;25;20275;-48
2024/04/10 09:53:36;;;;;;;2.20;2.00;;;;;;;;;;5676665;25;20295;-48
2024/04/10 09:56:07;;;;;;;2.47;1.90;;;;;;;;;;5677007;25;20266;-47
2024/04/10 09:58:39;;;;;;;3.45;1.50;;;;;;;;;;5676657;25;20227;-51
2024/04/10 10:01:06;;;;;;;3.22;1.50;;;;;;;;;;5676398;25;20271;-47
2024/04/10 10:03:35;;;;;;;3.33;2.00;;;;;;;;;;5666771;25;20220;-46
2024/04/10 10:06:03;;;;;;;4.50;2.25;;;;;;;;;;5674121;25;20560;-48
2024/04/10 10:08:33;;;;;;;2.83;2.30;;;;;;;;;;5676523;25;20220;-48
2024/04/10 10:10:59;;;;;;;1.67;1.40;;;;;;;;;;5676569;25;20262;-49
2024/04/10 10:13:31;;;;;;;4.20;2.00;;;;;;;;;;5676209;25;20271;-46
2024/04/10 10:15:59;;;;;;;1.95;1.70;;;;;;;;;;5677202;25;20216;-49
2024/04/10 10:18:30;;;;;;;3.88;1.70;;;;;;;;;;5676543;25;20254;-46
2024/04/10 10:21:04;;;;;;;2.45;1.88;;;;;;;;;;5664325;25;20224;-46
2024/04/10 10:23:33;;;;;;;4.20;2.15;;;;;;;;;;5675866;25;20223;-49
2024/04/10 10:26:00;;;;;;;6.03;2.03;;;;;;;;;;5676441;25;20602;-48
2024/04/10 10:28:35;;;;;;;3.13;1.60;;;;;;;;;;5676367;25;20223;-52
2024/04/10 10:31:11;;;;;;;4.38;1.90;;;;;;;;;;5665589;25;20694;-48
2024/04/10 10:33:41;;;;;;;4.65;1.85;;;;;;;;;;5662757;25;20238;-47
2024/04/10 10:36:08;;;;;;;1.80;1.70;;;;;;;;;;5675846;25;20737;-50
2024/04/10 10:38:37;;;;;;;1.58;1.48;;;;;;;;;;5676543;25;20270;-52
2024/04/10 10:41:08;;;;;;;2.22;1.63;;;;;;;;;;5676591;25;20570;-50
2024/04/10 10:43:40;;;;;;;2.67;1.48;;;;;;;;;;5659765;25;20220;-48
2024/04/10 10:46:08;;;;;;;2.13;1.40;;;;;;;;;;5676454;25;20254;-47
2024/04/10 10:48:37;;;;;;;3.38;1.65;;;;;;;;;;5676087;25;20223;-49
2024/04/10 10:51:04;;;;;;;3.10;1.70;;;;;;;;;;5676196;25;20224;-48
2024/04/10 10:53:33;;;;;;;1.40;1.30;;;;;;;;;;5675894;25;20220;-50
2024/04/10 10:55:59;;;;;;;3.50;2.08;;;;;;;;;;5662772;25;20227;-48
2024/04/10 10:58:29;;;;;;;3.50;1.90;;;;;;;;;;5675876;25;20228;-48
2024/04/10 11:00:58;;;;;;;2.30;1.60;;;;;;;;;;5662148;25;20711;-51
2024/04/10 11:03:29;;;;;;;2.20;1.88;;;;;;;;;;5675543;25;20322;-49
2024/04/10 11:06:05;;;;;;;2.22;1.85;;;;;;;;;;5673032;25;20258;-49
2024/04/10 11:08:34;;;;;;;5.32;2.33;;;;;;;;;;5675696;25;20223;-47
2024/04/10 11:11:01;;;;;;;2.28;1.83;;;;;;;;;;5675606;25;20596;-46
2024/04/10 11:13:30;;;;;;;1.80;1.70;;;;;;;;;;5675509;25;20244;-51
2024/04/10 11:16:00;;;;;;;2.47;1.75;;;;;;;;;;5675637;25;20208;-48
2024/04/10 11:18:29;;;;;;;3.05;1.92;;;;;;;;;;5675170;25;20223;-48
2024/04/10 11:20:55;;;;;;;3.53;1.55;;;;;;;;;;5652142;25;20259;-48
2024/04/10 11:23:25;;;;;;;2.25;1.42;;;;;;;;;;5666812;25;20562;-47
2024/04/10 11:25:52;;;;;;;1.00;1.00;;;;;;;;;;5675255;25;20224;-48
2024/04/10 11:28:22;;;;;;;2.83;1.58;;;;;;;;;;5671953;25;20632;-52
2024/04/10 11:30:49;;;;;;;3.25;1.40;;;;;;;;;;5673956;25;20758;-48
2024/04/10 11:33:20;;;;;;;1.48;1.38;;;;;;;;;;5665958;25;20265;-50
2024/04/10 11:35:47;;;;;;;1.63;1.40;;;;;;;;;;5660117;25;20215;-50
2024/04/10 11:38:16;;;;;;;1.75;1.45;;;;;;;;;;5674888;25;20228;-51
2024/04/10 11:40:43;;;;;;;2.13;1.40;;;;;;;;;;5661400;25;20224;-51
2024/04/10 11:43:12;;;;;;;3.40;1.15;;;;;;;;;;5674498;25;20564;-48
2024/04/10 11:45:38;;;;;;;2.03;1.20;;;;;;;;;;5658887;25;20301;-48
2024/04/10 11:48:08;;;;;;;1.75;1.30;;;;;;;;;;5671900;25;20276;-47
2024/04/10 11:50:37;;;;;;;1.42;1.30;;;;;;;;;;5678649;25;20220;-48
2024/04/10 11:53:06;;;;;;;1.33;1.23;;;;;;;;;;5678556;25;20695;-48
2024/04/10 11:55:33;;;;;;;2.05;1.80;;;;;;;;;;5675786;25;20258;-49
2024/04/10 11:58:02;;;;;;;2.67;1.65;;;;;;;;;;5679033;25;20262;-48
2024/04/10 12:00:29;;;;;;;1.90;1.55;;;;;;;;;;5678797;25;20215;-48
2024/04/10 12:02:58;;;;;;;4.70;1.80;;;;;;;;;;5662602;25;20268;-50
2024/04/10 12:05:27;;;;;;;2.97;1.63;;;;;;;;;;5678860;25;20267;-47
2024/04/10 12:07:56;;;;;;;1.60;1.50;;;;;;;;;;5675620;25;20326;-51
2024/04/10 12:10:26;;;;;;;3.30;1.80;;;;;;;;;;5677239;25;20224;-50
2024/04/10 12:12:53;;;;;;;4.53;2.53;;;;;;;;;;5677903;25;20293;-48
2024/04/10 12:15:22;;;;;;;2.03;1.73;;;;;;;;;;5675520;25;20581;-51
2024/04/10 12:17:49;;;;;;;4.68;2.60;;;;;;;;;;5678925;25;20219;-50
2024/04/10 12:20:18;;;;;;;4.72;1.80;;;;;;;;;;5675040;25;20698;-49
2024/04/10 12:22:45;;;;;;;1.50;1.40;;;;;;;;;;5662681;25;20274;-48
2024/04/10 12:25:17;;;;;;;1.60;1.50;;;;;;;;;;5678350;25;20303;-48
2024/04/10 12:27:46;;;;;;;2.83;1.63;;;;;;;;;;5675869;25;20262;-48
2024/04/10 12:30:15;;;;;;;1.65;1.52;;;;;;;;;;5678730;25;20843;-49
2024/04/10 12:32:42;;;;;;;3.67;1.83;;;;;;;;;;5677875;25;20285;-48
2024/04/10 12:38:06;;;;;;;2.85;1.70;;;;;;;;;;5681247;25;20258;-47
2024/04/10 12:40:38;;;;;;;3.80;1.90;;;;;;;;;;5677907;25;20270;-48
2024/04/10 12:43:09;;;;;;;3.08;1.70;;;;;;;;;;5677772;25;20261;-48
2024/04/10 12:45:38;;;;;;;2.67;1.30;;;;;;;;;;5674748;25;20765;-52
2024/04/10 12:48:06;;;;;;;4.20;1.90;;;;;;;;;;5678180;25;20749;-48
2024/04/10 12:50:36;;;;;;;1.92;1.73;;;;;;;;;;5674741;25;20546;-49
2024/04/10 12:53:02;;;;;;;2.35;1.80;;;;;;;;;;5677745;25;20216;-50
2024/04/10 12:55:31;;;;;;;1.98;1.55;;;;;;;;;;5674738;25;20598;-47
2024/04/10 12:58:00;;;;;;;2.03;1.60;;;;;;;;;;5665805;25;20352;-49
2024/04/10 13:00:30;;;;;;;1.98;1.60;;;;;;;;;;5677219;25;20325;-48
2024/04/10 13:02:56;;;;;;;5.88;3.75;;;;;;;;;;5673685;25;20232;-48
2024/04/10 13:05:25;;;;;;;2.55;1.55;;;;;;;;;;5671141;25;20258;-48
2024/04/10 13:07:52;;;;;;;2.30;1.83;;;;;;;;;;5676718;25;20224;-48
2024/04/10 13:10:21;;;;;;;3.67;1.70;;;;;;;;;;5677468;25;20283;-48
2024/04/10 13:12:48;;;;;;;3.95;2.38;;;;;;;;;;5677654;25;20291;-51
2024/04/10 13:15:19;;;;;;;2.72;1.73;;;;;;;;;;5677974;25;20528;-48
2024/04/10 13:17:46;;;;;;;3.72;1.67;;;;;;;;;;5674515;25;20220;-47
2024/04/10 13:20:15;;;;;;;2.72;1.30;;;;;;;;;;5674182;25;20276;-49
2024/04/10 13:22:42;;;;;;;3.40;2.00;;;;;;;;;;5677064;25;20224;-49
2024/04/10 13:25:11;;;;;;;2.67;1.50;;;;;;;;;;5677325;25;20276;-50
2024/04/10 13:27:38;;;;;;;2.28;1.48;;;;;;;;;;5673904;25;20304;-50
2024/04/10 13:30:09;;;;;;;1.45;1.35;;;;;;;;;;5674100;25;20328;-50
2024/04/10 13:32:39;;;;;;;2.80;1.75;;;;;;;;;;5677104;25;20224;-53
2024/04/10 13:35:08;;;;;;;2.05;1.40;;;;;;;;;;5676955;25;20219;-49
2024/04/10 13:37:35;;;;;;;1.83;1.73;;;;;;;;;;5677182;25;20270;-49
2024/04/10 13:40:04;;;;;;;3.58;1.90;;;;;;;;;;5677183;25;20682;-51
2024/04/10 13:42:31;;;;;;;2.47;1.88;;;;;;;;;;5676857;25;20597;-49
2024/04/10 13:45:00;;;;;;;2.55;2.17;;;;;;;;;;5661235;25;20313;-49
2024/04/10 13:47:27;;;;;;;2.95;2.08;;;;;;;;;;5677448;25;20760;-48
2024/04/10 13:49:59;;;;;;;2.80;1.73;;;;;;;;;;5670284;25;20571;-50
2024/04/10 13:52:27;;;;;;;1.90;1.65;;;;;;;;;;5673571;25;20228;-52
2024/04/10 13:54:56;;;;;;;3.63;1.63;;;;;;;;;;5677012;25;20224;-50
2024/04/10 13:57:22;;;;;;;2.33;2.10;;;;;;;;;;5677050;25;20671;-49
2024/04/10 13:59:51;;;;;;;1.63;1.50;;;;;;;;;;5660549;25;20249;-48
2024/04/10 14:02:18;;;;;;;5.90;2.15;;;;;;;;;;5676780;25;20223;-48
2024/04/10 14:04:47;;;;;;;2.70;1.70;;;;;;;;;;5676399;25;20220;-47
2024/04/10 14:07:16;;;;;;;3.35;2.22;;;;;;;;;;5676664;25;20757;-46
2024/04/10 14:09:45;;;;;;;4.47;1.85;;;;;;;;;;5676158;25;20292;-47
2024/04/10 14:12:12;;;;;;;2.58;1.60;;;;;;;;;;5674985;25;20275;-46
2024/04/10 14:14:41;;;;;;;2.78;1.80;;;;;;;;;;5675854;25;20224;-48
2024/04/10 14:17:07;;;;;;;2.28;1.25;;;;;;;;;;5676281;25;20266;-47
2024/04/10 14:19:37;;;;;;;2.45;1.55;;;;;;;;;;5676231;25;20232;-47
2024/04/10 14:22:04;;;;;;;1.33;1.23;;;;;;;;;;5676205;25;20274;-51
2024/04/10 14:24:36;;;;;;;1.30;0.90;;;;;;;;;;5676035;25;20749;-48
2024/04/10 14:27:03;;;;;;;2.05;1.45;;;;;;;;;;5676448;25;20220;-47
2024/04/10 14:29:32;;;;;;;1.63;1.30;;;;;;;;;;5676240;25;20224;-51
2024/04/10 14:31:58;;;;;;;2.33;1.60;;;;;;;;;;5664220;25;20266;-47
2024/04/10 14:34:27;;;;;;;4.38;1.75;;;;;;;;;;5675623;25;20220;-50
2024/04/10 14:36:54;;;;;;;2.25;1.77;;;;;;;;;;5676317;25;20215;-47
2024/04/10 14:39:23;;;;;;;1.65;1.42;;;;;;;;;;5676132;25;20220;-49
2024/04/10 14:41:53;;;;;;;5.82;2.30;;;;;;;;;;5676101;25;20253;-48
2024/04/10 14:44:42;;;;;;;2.55;1.50;;;;;;;;;;5675513;25;20250;-50
2024/04/10 14:47:08;;;;;;;1.25;1.17;;;;;;;;;;5666959;25;20750;-51
2024/04/10 14:49:38;;;;;;;1.30;1.20;;;;;;;;;;5675634;25;20220;-47
2024/04/10 14:52:05;;;;;;;1.45;1.10;;;;;;;;;;5676138;25;20227;-48
2024/04/10 14:54:34;;;;;;;1.30;1.20;;;;;;;;;;5675443;25;20288;-47
2024/04/10 14:57:04;;;;;;;1.00;1.00;;;;;;;;;;5664367;25;20262;-46